地図

経路データ

SID SEASON NUMBER BASIN SUBBASIN NAME ISO_TIME NATURE LAT LON WMO_WIND WMO_PRES WMO_AGENCY TRACK_TYPE DIST2LAND LANDFALL IFLAG USA_AGENCY USA_ATCF_ID USA_LAT USA_LON USA_RECORD USA_STATUS USA_WIND USA_PRES USA_SSHS USA_R34_NE USA_R34_SE USA_R34_SW USA_R34_NW USA_R50_NE USA_R50_SE USA_R50_SW USA_R50_NW USA_R64_NE USA_R64_SE USA_R64_SW USA_R64_NW USA_POCI USA_ROCI USA_RMW USA_EYE TOKYO_LAT TOKYO_LON TOKYO_GRADE TOKYO_WIND TOKYO_PRES TOKYO_R50_DIR TOKYO_R50_LONG TOKYO_R50_SHORT TOKYO_R30_DIR TOKYO_R30_LONG TOKYO_R30_SHORT TOKYO_LAND CMA_LAT CMA_LON CMA_CAT CMA_WIND CMA_PRES HKO_LAT HKO_LON HKO_CAT HKO_WIND HKO_PRES NEWDELHI_LAT NEWDELHI_LON NEWDELHI_GRADE NEWDELHI_WIND NEWDELHI_PRES NEWDELHI_CI NEWDELHI_DP NEWDELHI_POCI REUNION_LAT REUNION_LON REUNION_TYPE REUNION_WIND REUNION_PRES REUNION_TNUM REUNION_CI REUNION_RMW REUNION_R34_NE REUNION_R34_SE REUNION_R34_SW REUNION_R34_NW REUNION_R50_NE REUNION_R50_SE REUNION_R50_SW REUNION_R50_NW REUNION_R64_NE REUNION_R64_SE REUNION_R64_SW REUNION_R64_NW BOM_LAT BOM_LON BOM_TYPE BOM_WIND BOM_PRES BOM_TNUM BOM_CI BOM_RMW BOM_R34_NE BOM_R34_SE BOM_R34_SW BOM_R34_NW BOM_R50_NE BOM_R50_SE BOM_R50_SW BOM_R50_NW BOM_R64_NE BOM_R64_SE BOM_R64_SW BOM_R64_NW BOM_ROCI BOM_POCI BOM_EYE BOM_POS_METHOD BOM_PRES_METHOD NADI_LAT NADI_LON NADI_CAT NADI_WIND NADI_PRES WELLINGTON_LAT WELLINGTON_LON WELLINGTON_WIND WELLINGTON_PRES DS824_LAT DS824_LON DS824_STAGE DS824_WIND DS824_PRES TD9636_LAT TD9636_LON TD9636_STAGE TD9636_WIND TD9636_PRES TD9635_LAT TD9635_LON TD9635_WIND TD9635_PRES TD9635_ROCI NEUMANN_LAT NEUMANN_LON NEUMANN_CLASS NEUMANN_WIND NEUMANN_PRES MLC_LAT MLC_LON MLC_CLASS MLC_WIND MLC_PRES USA_GUST BOM_GUST BOM_GUST_PER REUNION_GUST REUNION_GUST_PER USA_SEAHGT USA_SEARAD_NE USA_SEARAD_SE USA_SEARAD_SW USA_SEARAD_NW STORM_SPEED STORM_DIR
1959248N13132 1959 74 WP MM NORA:PATSY 1959-09-05 06:00:00 TS 12.6000 131.900 main 688 657 __O___________ -1 12.6000 131.900 1 29 1000 12 316
1959248N13132 1959 74 WP MM NORA:PATSY 1959-09-05 09:00:00 TS 13.0302 131.480 main 657 625 __P___________ -1 13.0302 131.480 1 29 1001 8 304
1959248N13132 1959 74 WP MM NORA:PATSY 1959-09-05 12:00:00 TS 13.0571 131.214 main 626 582 O_O______OOO__ jtwc_wp WP121959 12.8000 131.300 20 -1 13.4000 131.100 1 29 1002 12.8000 131.300 TC 20 12.8000 131.300 1 20 12.8000 131.300 20 1006 120 9 303
1959248N13132 1959 74 WP MM NORA:PATSY 1959-09-05 15:00:00 TS 13.5305 130.684 main 582 541 P_P______PPP__ WP121959 13.3699 130.699 20 -1 13.6724 130.785 1 29 1002 13.3699 130.699 TC 20 13.7284 130.439 1 20 13.3699 130.699 20 1006 120 16 314
1959248N13132 1959 74 WP MM NORA:PATSY 1959-09-05 18:00:00 TS 14.1408 130.057 main 541 512 O_O______OPO__ jtwc_wp WP121959 14.1000 130.000 20 -1 13.9000 130.500 1 29 1003 14.1000 130.000 TC 20 14.5844 129.639 1 20 14.1000 130.000 20 1006 120 19 317
1959248N13132 1959 74 WP MM NORA:PATSY 1959-09-05 21:00:00 TS 14.9139 129.340 main 510 506 P_P______PPP__ WP121959 15.0405 129.177 20 -1 14.1500 130.200 1 29 1003 15.0405 129.177 TC 20 15.2978 128.969 1 20 15.0405 129.177 20 1005 150 19 318
1959248N13132 1959 74 WP MM NORA:PATSY 1959-09-06 00:00:00 TS 15.5200 128.780 main 506 484 O_O______OOO__ jtwc_wp WP121959 15.8000 128.500 20 -1 14.4000 129.900 1 29 1004 15.8000 128.500 TC 20 15.8000 128.500 1 20 15.8000 128.500 20 1005 180 11 316
1959248N13132 1959 74 WP MM NORA:PATSY 1959-09-06 03:00:00 TS 15.7215 128.534 main 484 475 P_P______PPP__ WP121959 15.9695 128.251 25 -1 14.6497 129.645 1 29 1003 15.9695 128.251 TC 25 16.0492 128.272 1 22 15.9695 128.251 25 1004 180 4 303
1959248N13132 1959 74 WP MM NORA:PATSY 1959-09-06 06:00:00 TS 15.7415 128.419 main 475 470 O_O______OPO__ jtwc_wp WP121959 15.9000 128.200 30 -1 14.9000 129.300 1 29 1003 15.9000 128.200 TC 30 16.1074 128.194 1 25 15.9000 128.200 30 1004 180 3 290
1959248N13132 1959 74 WP MM NORA:PATSY 1959-09-06 09:00:00 TS 15.8122 128.280 main 470 447 P_P______PPP__ WP121959 15.9497 128.167 30 -1 15.1501 128.752 1 29 1002 15.9497 128.167 TC 30 16.0620 128.145 1 27 15.9497 128.167 30 1003 180 4 290
1959248N13132 1959 74 WP MM NORA:PATSY 1959-09-06 12:00:00 TS 15.8800 128.020 main 447 407 O_O______OOO__ jtwc_wp WP121959 16.0000 128.000 30 -1 15.4000 128.100 1 29 1002 16.0000 128.000 TC 30 16.0000 128.000 1 30 16.0000 128.000 30 1003 180 8 281
1959248N13132 1959 74 WP MM NORA:PATSY 1959-09-06 15:00:00 TS 15.9583 127.482 main 407 357 P_P______PPP__ WP121959 16.0505 127.453 30 -1 15.6424 127.457 1 33 1001 16.0505 127.453 TC 30 15.9976 127.597 1 30 16.0505 127.453 30 1002 210 11 278
1959248N13132 1959 74 WP MM NORA:PATSY 1959-09-06 18:00:00 TS 16.0406 126.857 main 357 325 O_O______OPO__ jtwc_wp WP121959 16.1000 126.800 30 -1 15.9000 126.800 2 38 1000 16.1000 126.800 TC 30 16.0031 127.083 1 30 16.1000 126.800 30 1002 240 11 278
1959248N13132 1959 74 WP MM NORA:PATSY 1959-09-06 21:00:00 TS 16.1082 126.331 main 318 294 P_P______PPP__ WP121959 16.1046 126.342 30 -1 16.1700 126.127 2 38 1000 16.1046 126.342 TC 30 16.0569 126.503 1 30 16.1046 126.342 30 1001 240 10 282
1959248N13132 1959 74 WP MM NORA:PATSY 1959-09-07 00:00:00 TS 16.2600 125.820 main 303 297 O_O______OOO__ jtwc_wp WP121959 16.2000 125.900 30 -1 16.5000 125.500 2 38 1000 16.2000 125.900 TC 30 16.2000 125.900 1 30 16.2000 125.900 30 1001 240 11 295
1959248N13132 1959 74 WP MM NORA:PATSY 1959-09-07 03:00:00 TS 16.5874 125.280 main 300 244 P_P______PPP__ WP121959 16.4974 125.373 27 -1 16.9349 124.940 2 38 1000 16.4974 125.373 TC 27 16.5097 125.341 1 28 16.4974 125.373 27 1001 240 13 305
1959248N13132 1959 74 WP MM NORA:PATSY 1959-09-07 06:00:00 TS 17.0009 124.733 main 233 186 O_O______OPO__ jtwc_wp WP121959 16.9000 124.800 25 -1 17.4000 124.500 2 38 1001 16.9000 124.800 TC 25 16.9046 124.767 1 27 16.9000 124.800 25 1001 240 13 309
1959248N13132 1959 74 WP MM NORA:PATSY 1959-09-07 09:00:00 TS 17.4178 124.205 main 186 148 P_P______PPP__ WP121959 17.3223 124.215 25 -1 17.7998 124.197 2 33 1001 17.3223 124.215 TC 25 17.3222 124.184 1 26 17.3223 124.215 25 1001 270 13 308
1959248N13132 1959 74 WP MM NORA:PATSY 1959-09-07 12:00:00 TS 17.8000 123.680 main 148 97 O_O______OOO__ jtwc_wp WP121959 17.7000 123.600 25 -1 18.2000 124.000 1 29 1002 17.7000 123.600 TC 25 17.7000 123.600 1 25 17.7000 123.600 25 1001 300 12 303
1959248N13132 1959 74 WP MM NORA:PATSY 1959-09-07 15:00:00 TS 18.0820 123.127 main 87 10 P_P______PPP__ WP121959 17.9301 122.935 22 -1 18.6575 123.813 1 23 1003 17.9301 122.935 TC 22 17.9621 123.016 1 23 17.9301 122.935 22 1001 270 14 288
1959248N13132 1959 74 WP MM NORA:PATSY 1959-09-07 18:00:00 TS 18.2475 122.254 1006 tokyo main 10 0 OOO______OPO__ jtwc_wp WP121959 18.1000 122.300 20 -1 18.0000 119.000 2 1006 0 0 0 19.1000 123.700 0 17 1004 18.1000 122.300 TC 20 18.1745 122.434 1 22 18.1000 122.300 20 1002 240 16 280
1959248N13132 1959 74 WP MM NORA:PATSY 1959-09-07 21:00:00 TS 18.3642 121.498 main 0 0 PPP______PPP__ WP121959 18.3071 121.792 20 -1 18.0124 118.798 2 1006 0 0 19.4725 123.675 0 17 1005 18.3071 121.792 TC 20 18.3497 121.860 1 21 18.3071 121.792 20 1002 210 14 277
1959248N13132 1959 74 WP MM NORA:PATSY 1959-09-08 00:00:00 TS 18.4261 120.752 1006 tokyo main 0 0 OOO______OOO__ jtwc_wp WP121959 18.5000 121.300 20 -1 18.0000 118.500 2 1006 0 0 0 19.8000 123.700 0 17 1007 18.5000 121.300 TC 20 18.5000 121.300 1 20 18.5000 121.300 20 1003 180 15 273
1959248N13132 1959 74 WP MM NORA:PATSY 1959-09-08 03:00:00 TS 18.4482 119.911 main 71 71 PP_______PPP__ WP121959 18.6651 120.692 20 -1 17.9627 118.057 2 1005 0 0 0 18.6651 120.692 TC 20 18.6458 120.764 1 21 18.6651 120.692 20 1002 150 13 276
1959248N13132 1959 74 WP MM NORA:PATSY 1959-09-08 06:00:00 TS 18.5619 119.357 1004 tokyo main 128 128 OO_______OPO__ jtwc_wp WP121959 18.8000 120.100 20 -1 18.0000 117.600 2 1004 0 0 0 18.8000 120.100 TC 20 18.7715 120.242 1 22 18.8000 120.100 20 1002 120 10 284
1959248N13132 1959 74 WP MM NORA:PATSY 1959-09-08 09:00:00 TS 18.6816 118.906 main 181 181 PP_______PPP__ WP121959 18.8995 119.650 22 -1 18.2124 117.270 2 1003 0 0 18.8995 119.650 TC 22 18.8865 119.723 1 23 18.8995 119.650 22 1001 120 9 287
1959248N13132 1959 74 WP MM NORA:PATSY 1959-09-08 12:00:00 TS 18.8167 118.467 1002 tokyo main 225 225 OO_______OOO__ jtwc_wp WP121959 19.0000 119.200 25 -1 18.5000 117.000 2 1002 0 0 0 19.0000 119.200 TC 25 19.0000 119.200 1 25 19.0000 119.200 25 1001 120 10 288
1959248N13132 1959 74 WP MM NORA:PATSY 1959-09-08 15:00:00 TS 18.9786 117.952 main 281 281 PP_______PPP__ WP121959 19.1501 118.608 27 -1 18.7574 116.742 2 1001 0 0 19.1501 118.608 TC 27 19.1288 118.653 1 27 19.1501 118.608 27 1000 120 10 288
1959248N13132 1959 74 WP MM NORA:PATSY 1959-09-08 18:00:00 TS 19.1429 117.433 1000 tokyo main 345 345 OO_______OPO__ jtwc_wp WP121959 19.3000 118.000 30 -1 19.0000 116.500 2 1000 0 0 0 19.3000 118.000 TC 30 19.2571 118.100 1 30 19.3000 118.000 30 1000 120 10 288
1959248N13132 1959 74 WP MM NORA:PATSY 1959-09-08 21:00:00 TS 19.2839 116.956 main 391 376 PP_______PPP__ WP121959 19.4072 117.485 32 -1 19.2150 116.242 2 1000 0 0 19.4072 117.485 TC 32 19.3819 117.547 1 32 19.4072 117.485 32 999 150 9 288
1959248N13132 1959 74 WP MM NORA:PATSY 1959-09-09 00:00:00 TS 19.4167 116.517 1000 tokyo main 376 357 OO_______OOO__ jtwc_wp WP121959 19.5000 117.000 35 0 19.4000 116.000 2 1000 0 0 0 19.5000 117.000 TC 35 19.5000 117.000 2 35 19.5000 117.000 35 998 180 8 289
1959248N13132 1959 74 WP MM NORA:PATSY 1959-09-09 03:00:00 TS 19.5510 116.113 main 347 323 PP_______PPP__ WP121959 19.5998 116.507 37 0 19.5574 115.807 2 1000 0 0 19.5998 116.507 TC 37 19.5994 116.411 2 37 19.5998 116.507 37 997 180 8 290
1959248N13132 1959 74 WP MM NORA:PATSY 1959-09-09 06:00:00 TS 19.6822 115.723 1000 tokyo main 323 298 OO_______OPO__ jtwc_wp WP121959 19.7000 116.000 40 0 19.7000 115.600 2 1000 0 0 0 19.7000 116.000 TC 40 19.6931 115.837 2 40 19.7000 116.000 40 996 180 8 288
1959248N13132 1959 74 WP MM NORA:PATSY 1959-09-09 09:00:00 TS 19.8068 115.295 main 298 275 PP_______PPP__ WP121959 19.7927 115.420 42 0 19.8723 115.345 2 1000 0 0 19.7927 115.420 TC 42 19.7902 115.320 2 42 19.7927 115.420 42 995 180 8 288
1959248N13132 1959 74 WP MM NORA:PATSY 1959-09-09 12:00:00 TS 19.9333 114.900 1000 tokyo main 275 247 OO_______OOO__ jtwc_wp WP121959 19.9000 114.900 45 0 20.0000 115.000 2 1000 0 0 0 19.9000 114.900 TC 45 19.9000 114.900 2 45 19.9000 114.900 45 994 180 7 290
1959248N13132 1959 74 WP MM NORA:PATSY 1959-09-09 15:00:00 TS 20.0595 114.555 main 247 233 PP_______PPP__ WP121959 20.0423 114.525 47 0 19.9855 114.447 2 1000 0 0 20.0423 114.525 TC 47 20.0023 114.564 2 46 20.0423 114.525 47 993 180 6 297
1959248N13132 1959 74 WP MM NORA:PATSY 1959-09-09 18:00:00 TS 20.2040 114.322 1000 tokyo main 233 208 OO_______OPO__ jtwc_wp WP121959 20.2000 114.300 50 0 20.0000 114.000 2 1000 0 0 0 20.2000 114.300 TC 50 20.1240 114.333 2 47 20.2000 114.300 50 992 180 4 316
1959248N13132 1959 74 WP MM NORA:PATSY 1959-09-09 21:00:00 TS 20.3714 114.230 main 208 190 PP_______PPP__ WP121959 20.3274 114.183 50 0 20.2122 113.945 2 997 0 0 20.3274 114.183 TC 50 20.2837 114.211 2 48 20.3274 114.183 50 991 180 4 351
1959248N13132 1959 74 WP MM NORA:PATSY 1959-09-10 00:00:00 TS 20.5833 114.267 994 tokyo main 190 167 OO_______OOO__ jtwc_wp WP121959 20.5000 114.200 50 0 20.5000 114.100 9 994 0 0 0 20.5000 114.200 TC 50 20.5000 114.200 2 50 20.5000 114.200 50 991 180 5 16
1959248N13132 1959 74 WP MM NORA:PATSY 1959-09-10 03:00:00 TS 20.8450 114.379 main 168 135 PP_______PPP__ WP121959 20.7625 114.305 50 0 20.7275 114.278 9 994 0 0 20.7625 114.305 TC 50 20.8047 114.287 2 48 20.7625 114.305 50 991 180 6 26
1959248N13132 1959 74 WP MM NORA:PATSY 1959-09-10 06:00:00 TS 21.1604 114.563 994 tokyo main 126 98 OO_______OPO__ jtwc_wp WP121959 21.1000 114.500 50 0 21.0000 114.500 9 994 0 0 0 21.1000 114.500 TC 50 21.1626 114.479 2 47 21.1000 114.500 50 992 180 8 28
1959248N13132 1959 74 WP MM NORA:PATSY 1959-09-10 09:00:00 TS 21.5416 114.778 main 103 67 PP_______PPP__ WP121959 21.5301 114.757 47 0 21.3850 114.715 9 992 0 0 21.5301 114.757 TC 47 21.5392 114.731 2 46 21.5301 114.757 47 993 180 8 28
1959248N13132 1959 74 WP MM NORA:PATSY 1959-09-10 12:00:00 TS 21.9000 114.983 990 tokyo main 67 49 OO_______OOO__ jtwc_wp WP121959 21.9000 115.000 45 0 21.8000 114.900 9 990 0 0 0 21.9000 115.000 TC 45 21.9000 115.000 2 45 21.9000 115.000 45 994 180 6 27
1959248N13132 1959 74 WP MM NORA:PATSY 1959-09-10 15:00:00 TS 22.1037 115.089 main 49 38 PP_______PPP__ WP121959 21.9923 115.086 42 0 22.1349 115.000 9 989 0 0 21.9923 115.086 TC 42 22.1678 115.191 2 42 21.9923 115.086 42 995 180 5 27
1959248N13132 1959 74 WP MM NORA:PATSY 1959-09-10 18:00:00 TS 22.3199 115.215 988 tokyo main 38 0 OO_______OPO__ jtwc_wp WP121959 22.1000 115.200 40 0 22.5000 115.100 9 988 0 0 0 22.1000 115.200 TC 40 22.4194 115.392 2 40 22.1000 115.200 40 996 180 7 30
1959248N13132 1959 74 WP MM NORA:PATSY 1959-09-10 21:00:00 TS 22.6840 115.450 main 0 0 PP_______PPP__ WP121959 22.4902 115.520 37 0 22.9698 115.241 9 989 0 0 22.4902 115.520 TC 37 22.6864 115.622 2 37 22.4902 115.520 37 997 180 10 32
1959248N13132 1959 74 WP MM NORA:PATSY 1959-09-11 00:00:00 TS 23.1333 115.767 990 tokyo main 0 0 OO_______OOO__ jtwc_wp WP121959 23.0000 115.900 35 0 23.5000 115.500 9 990 0 0 0 23.0000 115.900 TC 35 23.0000 115.900 2 35 23.0000 115.900 35 998 180 11 33
1959248N13132 1959 74 WP MM NORA:PATSY 1959-09-11 03:00:00 TS 23.6156 116.114 main 0 0 PP_______PPP__ WP121959 23.5072 116.178 35 0 24.0425 115.940 9 993 0 0 23.5072 116.178 TC 35 23.3819 116.175 2 33 23.5072 116.178 35 998 150 12 36
1959248N13132 1959 74 WP MM NORA:PATSY 1959-09-11 06:00:00 TS 24.1191 116.535 996 tokyo main 0 0 OO_______OPO__ jtwc_wp WP121959 24.0000 116.500 35 0 24.6000 116.500 2 996 0 0 0 24.0000 116.500 TC 35 23.8148 116.509 2 32 24.0000 116.500 35 999 120 13 40
1959248N13132 1959 74 WP MM NORA:PATSY 1959-09-11 09:00:00 TS 24.5941 117.002 main 0 0 PP_______PPP__ WP121959 24.3841 116.897 32 -1 25.1723 117.078 2 997 0 0 24.3841 116.897 TC 32 24.2904 116.939 2 31 24.3841 116.897 32 999 120 14 45
1959248N13132 1959 74 WP MM NORA:PATSY 1959-09-11 12:00:00 TS 25.0833 117.600 998 tokyo main 0 0 OO_______OOO__ jtwc_wp WP121959 24.8000 117.500 30 -1 25.7000 117.700 2 998 0 0 0 24.8000 117.500 TC 30 24.8000 117.500 1 30 24.8000 117.500 30 1000 120 16 51
1959248N13132 1959 74 WP MM NORA:PATSY 1959-09-11 15:00:00 TS 25.6156 118.407 main 0 0 PP_______PPP__ WP121959 25.3863 118.461 30 -1 26.1071 118.329 2 1000 0 0 25.3863 118.461 TC 30 25.3204 118.277 1 28 25.3863 118.461 30 1001 120 19 55
1959248N13132 1959 74 WP MM NORA:PATSY 1959-09-11 18:00:00 TS 26.1612 119.280 1002 tokyo main 0 0 OO_______OPO__ jtwc_wp WP121959 26.0000 119.500 30 -1 26.5000 119.000 2 1002 0 0 0 26.0000 119.500 TC 30 25.8671 119.180 1 27 26.0000 119.500 30 1002 120 18 54
1959248N13132 1959 74 WP MM NORA:PATSY 1959-09-11 21:00:00 TS 26.6741 120.059 main 0 0 PP_______PPP__ WP121959 26.5066 120.304 27 -1 26.9475 119.743 2 1002 0 0 26.5066 120.304 TC 27 26.4298 120.118 1 26 26.5066 120.304 27 1002 120 17 52
1959248N13132 1959 74 WP MM NORA:PATSY 1959-09-12 00:00:00 MX 27.2167 120.783 1002 tokyo main 29 29 OO_______OOO__ jtwc_wp WP121959 27.0000 121.000 25 -1 27.5000 120.500 6 1002 0 0 0 27.0000 121.000 TC 25 27.0000 121.000 1 25 27.0000 121.000 25 1003 120 17 47
1959248N13132 1959 74 WP MM NORA:PATSY 1959-09-12 03:00:00 MX 27.8423 121.486 main 38 22 PP_______PPP__ WP121959 27.5346 121.673 25 -1 28.2122 121.215 6 1002 0 0 27.5346 121.673 TC 25 27.5727 121.754 1 25 27.5346 121.673 25 1003 120 18 43
1959248N13132 1959 74 WP MM NORA:PATSY 1959-09-12 06:00:00 MX 28.5062 122.121 1002 tokyo main 44 44 OO_______OPO__ jtwc_wp WP121959 28.1000 122.300 25 -1 29.0000 121.900 6 1002 0 0 0 28.1000 122.300 TC 25 28.1474 122.396 1 25 28.1000 122.300 25 1003 120 17 39
1959248N13132 1959 74 WP MM NORA:PATSY 1959-09-12 09:00:00 MX 29.1235 122.688 main 68 67 PP_______PPP__ WP121959 28.6473 122.924 25 -1 29.8245 122.557 6 1002 0 0 28.6473 122.924 TC 25 28.7237 122.965 1 25 28.6473 122.924 25 1003 90 16 35
1959248N13132 1959 74 WP MM NORA:PATSY 1959-09-12 12:00:00 MX 29.8333 123.189 1002 tokyo main 125 125 OO_______OOO__ jtwc_wp WP121959 29.3000 123.500 25 -1 30.5000 123.200 6 1002 0 0 0 29.3000 123.500 TC 25 29.3000 123.500 1 25 29.3000 123.500 25 1004 60 17 32
1959248N13132 1959 74 WP MM NORA:PATSY 1959-09-12 15:00:00 MX 30.5612 123.739 main 174 174 PP_______P_P__ WP121959 30.1428 124.015 22 -1 30.7494 123.839 6 1002 0 0 30.1428 124.015 TC 22 1 30.1428 124.015 22 1004 60 17 37
1959248N13132 1959 74 WP MM NORA:PATSY 1959-09-12 18:00:00 MX 31.2091 124.391 1002 tokyo main 240 192 OO_______O_O__ jtwc_wp WP121959 31.1000 124.500 20 -1 31.0000 124.500 6 1002 0 0 0 31.1000 124.500 TC 20 1 31.1000 124.500 20 1004 60 17 43
1959248N13132 1959 74 WP MM NORA:PATSY 1959-09-12 21:00:00 ET 31.8324 125.124 main 192 86 _P____________ WP121959 -1 31.6733 125.161 6 1002 0 0 TC 1 19 47
1959248N13132 1959 74 WP MM NORA:PATSY 1959-09-13 00:00:00 ET 32.5000 126.000 1002 tokyo main 82 21 _O____________ -1 32.5000 126.000 6 1002 0 0 0 21 51
1959248N13132 1959 74 WP MM NORA:PATSY 1959-09-13 03:00:00 ET 33.1914 127.079 main 29 29 _P____________ -1 33.3267 127.209 6 1002 0 0 23 55
1959248N13132 1959 74 WP MM NORA:PATSY 1959-09-13 06:00:00 ET 33.8000 128.250 1002 tokyo main 100 90 _O____________ -1 34.0000 128.500 6 1002 0 0 0 22 62
1959248N13132 1959 74 WP MM NORA:PATSY 1959-09-13 09:00:00 ET 34.2095 129.395 main 90 50 _P____________ -1 34.3231 129.541 6 1003 0 0 20 69
1959248N13132 1959 74 WP MM NORA:PATSY 1959-09-13 12:00:00 ET 34.5000 130.500 1004 tokyo main 42 14 _O____________ -1 34.5000 130.500 6 1004 0 0 0 19 75
1959248N13132 1959 74 WP MM NORA:PATSY 1959-09-13 15:00:00 ET 34.6936 131.578 main 11 0 _P____________ -1 34.6757 131.577 6 1005 0 0 17 73
1959248N13132 1959 74 WP MM NORA:PATSY 1959-09-13 18:00:00 ET 35.0000 132.500 1006 tokyo main 0 0 _O____________ -1 35.0000 132.500 6 1006 0 0 0 17 53
1959248N13132 1959 74 WP MM NORA:PATSY 1959-09-13 21:00:00 ET 35.7127 133.247 main 22 22 _P____________ -1 35.6493 133.098 6 1007 0 0 18 38
1959248N13132 1959 74 WP MM NORA:PATSY 1959-09-14 00:00:00 ET 36.4250 133.875 1008 tokyo main 99 99 _O____________ -1 36.5000 133.500 6 1008 0 0 0 13 52
1959248N13132 1959 74 WP MM NORA:PATSY 1959-09-14 03:00:00 ET 36.5228 134.541 main 100 67 ______________ -1 6 0 0 9 98
1959248N13132 1959 74 WP MM NORA:PATSY 1959-09-14 06:00:00 ET 36.3000 135.000 main 67 ______________ -1 9 121

デジタル台風データ・検索

IBTrACS Databaseについて

本データベースは、米国NOAAが公開する1842年以降の世界の熱帯低気圧のベストトラックデータアーカイブInternational Best Track Archive for Climate Stewardship (IBTrACS)を、ウェブで閲覧しやすい形式に変換したものです。

最終更新日:2021-10-21